Unser neues Flugzeug

Liebe Piloten, Flugschüler und Charterer,

Wir freuen uns Euch unser neues Flugzeug präsentieren zu können.

Voraussichtlich schon Mitte März haben wir unsere Mooney Ovation 2 GX bei uns in Augsburg und für Euch zur Schulung und zum Charten zur Verfügung.

Die Mooney ist Baujahr 2006, hat u.a. eine Lederausstattung, Speed Breaks, TKS Enteisungsanlage und eine Sauerstoffanlage.

Selbstverständlich ist Sie genau wie unsere Cessna 172 SP D-ETTU mit Garmin G 1000 IFR ausgestattet.

Happy landings

Christian

 

 

Flugwetter Augsburg

[source: ADDS]
METAR
EDMA 040520Z AUTO 05001KT 9999 // NCD M01/M02 Q1022 =
TAF
Cookies erleichtern die Bereitstellung unserer Dienste. Mit der Nutzung unserer Dienste erklären Sie sich damit einverstanden, dass wir Cookies verwenden.
Weitere Informationen Ok